Latest Coastal Weather Observations for Middle Percy Island

IDQ60701

Issued at 12:45 am EST Friday 3 October 2014 (issued every 10 minutes, with the page automatically refreshed every 10 minutes)

About coastal observations | Map of coastal stations | Coastal observations for QLD | Marine services | Other Formats
Station Details ID: 200001 Name: MIDDLE PERCY ISLAND Lat: -21.66 Lon: 150.27 Height: 208.7 m
Data from the previous 72 hours. | See also: Recent months at Middle Percy Island
Date/Time
EST
Temp

°C
Wind Pressure Rain
since 9am
mm
Weather Cloud Vis
km
Sea
Height
m
Swell
Dir
 
Speed
knots
Gust
knots
hPa Trend Height
m
Period
s
Dir
03/12:30am 19.6 E 6 9 1018.5 - 0.0 - - - - - - -
03/12:00am 19.6 ENE 6 9 1018.8 - 0.0 - - - - - - -
 
Date/Time
EST
Temp

°C
Wind Pressure Rain
since 9am
mm
Weather Cloud Vis
km
Sea
Height
m
Swell
Dir
 
Speed
knots
Gust
knots
hPa Trend Height
m
Period
s
Dir
02/11:30pm 19.7 E 6 9 1019.1 - 0.0 - - - - - - -
02/11:00pm 19.8 ENE 7 11 1019.2 - 0.0 - - - - - - -
02/10:30pm 19.8 E 7 11 1019.2 - 0.0 - - - - - - -
02/10:00pm 19.7 E 6 11 1019.3 - 0.0 - - - - - - -
02/09:30pm 19.8 E 7 11 1019.5 - 0.0 - - - - - - -
02/09:00pm 19.8 E 5 11 1019.4 - 0.0 - - - - - - -
02/08:30pm 19.8 E 5 9 1019.3 - 0.0 - - - - - - -
02/08:00pm 19.8 ESE 6 11 1018.9 - 0.0 - - - - - - -
02/07:30pm 19.9 ESE 6 9 1018.7 - 0.0 - - - - - - -
02/07:00pm 19.9 ESE 5 8 1018.4 - 0.0 - - - - - - -
02/06:30pm 20.1 E 4 8 1018.1 - 0.0 - - - - - - -
02/06:00pm 20.2 E 5 7 1017.7 - 0.0 - - - - - - -
02/05:30pm 20.8 ESE 4 8 1017.5 - 0.0 - - - - - - -
02/05:00pm 21.5 ESE 6 10 1017.3 - 0.0 - - - - - - -
02/04:30pm 22.0 ESE 7 10 1017.1 - 0.0 - - - - - - -
02/04:00pm 21.7 SE 8 12 1017.0 - 0.0 - - - - - - -
02/03:30pm 22.1 SE 9 12 1017.0 - 0.0 - - - - - - -
02/03:00pm 23.1 SE 9 14 1017.0 - 0.0 - - - - - - -
02/02:30pm 23.4 ESE 9 12 1017.0 - 0.0 - - - - - - -
02/02:00pm 23.2 SE 8 12 1017.1 - 0.0 - - - - - - -
02/01:30pm 23.9 SE 9 13 1017.4 - 0.0 - - - - - - -
02/01:00pm 23.9 ESE 8 12 1017.7 - 0.0 - - - - - - -
02/12:30pm 24.1 ESE 8 13 1017.9 - 0.0 - - - - - - -
02/12:00pm 24.0 ESE 7 12 1018.2 - 0.0 - - - - - - -
02/11:30am 23.3 SE 8 13 1018.6 - 0.0 - - - - - - -
02/11:00am 23.5 SE 10 14 1018.9 - 0.0 - - - - - - -
02/10:30am 23.5 ESE 9 12 1019.1 - 0.0 - - - - - - -
02/10:00am 23.0 ESE 6 10 1019.0 - 0.0 - - - - - - -
02/09:30am 24.1 ESE 5 8 1018.8 - 0.0 - - - - - - -
02/09:00am 23.1 SE 5 7 1018.6 - 0.0 - - - - - - -
02/08:30am 22.4 SSE 4 6 1018.4 - 0.0 - - - - - - -
02/08:00am 22.3 SE 3 4 1018.2 - 0.0 - - - - - - -
02/07:30am 21.7 NE 2 3 1018.0 - 0.0 - - - - - - -
02/07:00am 20.9 N 1 5 1017.6 - 0.0 - - - - - - -
02/06:30am 18.8 N 6 8 1017.0 - 0.0 - - - - - - -
02/06:00am 18.3 N 4 5 1016.9 - 0.0 - - - - - - -
02/05:30am 18.0 N 4 5 1016.5 - 0.0 - - - - - - -
02/05:00am 17.9 N 6 8 1016.2 - 0.0 - - - - - - -
02/04:30am 18.3 N 8 10 1015.6 - 0.0 - - - - - - -
02/04:00am 18.4 N 5 8 1015.6 - 0.0 - - - - - - -
02/03:30am 18.1 N 5 8 1015.5 - 0.0 - - - - - - -
02/03:00am 18.6 N 7 11 1015.4 - 0.0 - - - - - - -
02/02:30am 18.6 N 7 9 1015.3 - 0.0 - - - - - - -
02/02:00am 18.7 N 7 10 1015.5 - 0.0 - - - - - - -
02/01:30am 18.6 N 8 11 1015.7 - 0.0 - - - - - - -
02/01:00am 18.8 N 8 11 1015.9 - 0.0 - - - - - - -
02/12:30am 18.6 N 8 10 1015.9 - 0.0 - - - - - - -
02/12:00am 17.8 N 7 9 1016.3 - 0.0 - - - - - - -
 
Date/Time
EST
Temp

°C
Wind Pressure Rain
since 9am
mm
Weather Cloud Vis
km
Sea
Height
m
Swell
Dir
 
Speed
knots
Gust
knots
hPa Trend Height
m
Period
s
Dir
01/11:30pm 18.8 N 8 11 1016.4 - 0.0 - - - - - - -
01/11:00pm 18.0 N 8 9 1016.5 - 0.0 - - - - - - -
01/10:30pm 18.2 N 7 9 1016.6 - 0.0 - - - - - - -
01/10:00pm 18.2 N 6 7 1016.8 - 0.0 - - - - - - -
01/09:30pm 18.5 N 8 10 1016.5 - 0.0 - - - - - - -
01/09:00pm 18.4 N 7 8 1016.6 - 0.0 - - - - - - -
01/08:30pm 18.5 N 7 8 1016.5 - 0.0 - - - - - - -
01/08:00pm 18.0 N 6 8 1016.3 - 0.0 - - - - - - -
01/07:30pm 18.6 N 4 5 1016.4 - 0.0 - - - - - - -
01/07:00pm 18.6 N 3 4 1016.3 - 0.0 - - - - - - -
01/06:30pm 18.9 NNE 3 4 1016.2 - 0.0 - - - - - - -
01/06:00pm 19.3 N 3 4 1016.1 - 0.0 - - - - - - -
01/05:30pm 20.8 N 1 3 1016.1 - 0.0 - - - - - - -
01/05:00pm 21.6 SE 2 4 1016.1 - 0.0 - - - - - - -
01/04:30pm 22.2 S 4 7 1016.1 - 0.0 - - - - - - -
01/04:00pm 22.4 S 3 6 1016.0 - 0.0 - - - - - - -
01/03:30pm 22.7 SSW 3 5 1016.0 - 0.0 - - - - - - -
01/03:00pm 22.6 S 6 7 1016.3 - 0.0 - - - - - - -
01/02:30pm 22.8 S 6 8 1016.5 - 0.0 - - - - - - -
01/02:00pm 23.3 SSW 5 10 1016.8 - 0.0 - - - - - - -
01/01:30pm 23.5 S 5 8 1017.1 - 0.0 - - - - - - -
01/01:00pm 24.3 S 5 8 1017.4 - 0.0 - - - - - - -
01/12:30pm 23.4 ESE 5 9 1017.9 - 0.0 - - - - - - -
01/12:00pm 23.6 SE 4 8 1018.5 - 0.0 - - - - - - -
01/11:30am 23.3 ESE 5 8 1019.0 - 0.0 - - - - - - -
01/11:00am 22.7 SSE 7 11 1019.4 - 0.0 - - - - - - -
01/10:30am 23.5 SE 7 10 1019.6 - 0.0 - - - - - - -
01/10:00am 23.4 ESE 6 9 1019.8 - 0.0 - - - - - - -
01/09:30am 22.3 SSE 7 10 1020.1 - 0.0 - - - - - - -
01/09:00am 22.3 SE 6 8 1020.2 - 0.0 - - - - - - -
01/08:30am 22.2 SE 5 8 1020.1 - 0.0 - - - - - - -
01/08:00am 21.5 SE 5 8 1019.9 - 0.0 - - - - - - -
01/07:30am 20.8 SSE 4 6 1019.7 - 0.0 - - - - - - -
01/07:00am 20.2 SSE 3 4 1019.3 - 0.0 - - - - - - -
01/06:30am 19.3 SE 2 3 1019.0 - 0.0 - - - - - - -
01/06:00am 18.7 E 4 6 1018.8 - 0.0 - - - - - - -
01/05:30am 18.8 E 5 7 1018.6 - 0.0 - - - - - - -
01/05:00am 18.2 E 4 6 1018.4 - 0.0 - - - - - - -
01/04:30am 18.1 ESE 3 5 1018.2 - 0.0 - - - - - - -
01/04:00am 18.1 E 4 5 1018.1 - 0.0 - - - - - - -
01/03:30am 18.4 SE 3 4 1018.2 - 0.0 - - - - - - -
01/03:00am 18.3 E 3 4 1018.1 - 0.0 - - - - - - -
01/02:30am 18.5 ESE 4 5 1018.5 - 0.0 - - - - - - -
01/02:00am 18.7 ENE 3 5 1018.7 - 0.0 - - - - - - -
01/01:30am 19.1 N 5 8 1019.0 - 0.0 - - - - - - -
01/01:00am 18.9 NNE 4 4 1019.2 - 0.0 - - - - - - -
01/12:30am 19.4 NNE 5 8 1019.4 - 0.0 - - - - - - -
01/12:00am 19.4 NE 4 7 1019.8 - 0.0 - - - - - - -
 
Date/Time
EST
Temp

°C
Wind Pressure Rain
since 9am
mm
Weather Cloud Vis
km
Sea
Height
m
Swell
Dir
 
Speed
knots
Gust
knots
hPa Trend Height
m
Period
s
Dir
30/11:30pm 19.6 NE 4 6 1020.0 - 0.0 - - - - - - -
30/11:00pm 19.2 NE 5 10 1019.9 - 0.0 - - - - - - -
30/10:30pm 18.9 NE 6 9 1020.1 - 0.0 - - - - - - -
30/10:00pm 18.9 ENE 4 7 1020.0 - 0.0 - - - - - - -
30/09:30pm 18.7 E 5 7 1020.2 - 0.0 - - - - - - -
30/09:00pm 19.2 E 5 7 1020.0 - 0.0 - - - - - - -
30/08:30pm 19.1 E 5 7 1019.9 - 0.0 - - - - - - -
30/08:00pm 19.2 E 5 8 1019.7 - 0.0 - - - - - - -
30/07:30pm 19.4 E 5 7 1019.3 - 0.0 - - - - - - -
30/07:00pm 19.5 ENE 5 8 1018.8 - 0.0 - - - - - - -
30/06:30pm 19.5 E 5 8 1018.5 - 0.0 - - - - - - -
30/06:00pm 19.8 ENE 5 8 1018.2 - 0.0 - - - - - - -
30/05:30pm 20.4 ESE 4 8 1017.9 - 0.0 - - - - - - -
30/05:00pm 21.5 E 3 6 1017.6 - 0.0 - - - - - - -
30/04:30pm 21.9 ESE 7 10 1017.6 - 0.0 - - - - - - -
30/04:00pm 22.1 SE 7 9 1017.6 - 0.0 - - - - - - -
30/03:30pm 22.6 SE 7 10 1017.7 - 0.0 - - - - - - -
30/03:00pm 22.8 SE 7 12 1017.8 - 0.0 - - - - - - -
30/02:30pm 22.9 SE 8 12 1018.0 - 0.0 - - - - - - -
30/02:00pm 23.3 SE 9 11 1018.3 - 0.0 - - - - - - -
30/01:30pm 23.9 ESE 7 11 1018.5 - 0.0 - - - - - - -
30/01:00pm 23.9 ESE 8 12 1018.8 - 0.0 - - - - - - -
30/12:30pm 23.3 SE 8 11 1019.4 - 0.0 - - - - - - -
30/12:00pm 23.3 ESE 8 13 1020.1 - 0.0 - - - - - - -
30/11:30am 23.6 ESE 7 11 1020.5 - 0.0 - - - - - - -
30/11:00am 24.0 ESE 8 12 1020.9 - 0.0 - - - - - - -
30/10:30am 23.8 NE 7 11 1021.0 - 0.0 - - - - - - -
30/10:00am 22.0 SE 6 10 1021.3 - 0.0 - - - - - - -
30/09:30am 23.0 ESE 7 10 1021.3 - 0.0 - - - - - - -
30/09:00am 22.5 SE 6 11 1021.4 - 0.0 - - - - - - -
30/08:30am 21.7 SE 6 9 1021.2 - 0.0 - - - - - - -
30/08:00am 21.5 SE 8 11 1020.9 - 0.0 - - - - - - -
30/07:30am 21.0 SE 6 10 1020.7 - 0.0 - - - - - - -
30/07:00am 20.7 E 3 6 1020.4 - 0.0 - - - - - - -
30/06:30am 19.9 E 5 8 1020.0 - 0.0 - - - - - - -
30/06:00am 18.8 E 5 8 1019.8 - 0.0 - - - - - - -
30/05:30am 18.6 ENE 5 8 1019.4 - 0.0 - - - - - - -
30/05:00am 18.8 NE 6 9 1019.1 - 0.0 - - - - - - -
30/04:30am 18.6 ENE 6 9 1018.7 - 0.0 - - - - - - -
30/04:00am 18.6 E 5 8 1018.6 - 0.0 - - - - - - -
30/03:30am 18.8 E 6 9 1018.6 - 0.0 - - - - - - -
30/03:00am 18.8 E 6 8 1018.6 - 0.0 - - - - - - -
30/02:30am 18.7 E 5 9 1018.6 - 0.0 - - - - - - -
30/02:00am 18.6 E 5 8 1018.7 - 0.0 - - - - - - -
30/01:30am 18.9 ENE 6 10 1019.0 - 0.0 - - - - - - -
30/01:00am 19.0 ENE 8 13 1019.1 - 0.0 - - - - - - -

Other Formats:

Comma delimited format used in spreadsheet applications
http://www.bom.gov.au/fwo/IDQ60701/IDQ60701.94372.axf

JavaScript Object Notation format (JSON) in row-major order
http://www.bom.gov.au/fwo/IDQ60701/IDQ60701.94372.json